sensor_id;sensor_type;location;lat;lon;timestamp;pressure;altitude;pressure_sealevel;temperature;humidity
7918;BME280;4004;42.624;23.386;2022-09-03T00:02:02;94136.38;;;17.46;100.00
7918;BME280;4004;42.624;23.386;2022-09-03T00:04:38;94134.53;;;17.29;100.00
7918;BME280;4004;42.624;23.386;2022-09-03T00:07:14;94138.84;;;17.26;100.00
7918;BME280;4004;42.624;23.386;2022-09-03T00:09:47;94123.78;;;17.11;100.00
7918;BME280;4004;42.624;23.386;2022-09-03T00:12:19;94138.44;;;17.24;100.00
7918;BME280;4004;42.624;23.386;2022-09-03T00:14:50;94137.63;;;17.31;100.00
7918;BME280;4004;42.624;23.386;2022-09-03T00:17:21;94122.66;;;17.05;100.00
7918;BME280;4004;42.624;23.386;2022-09-03T00:19:53;94123.88;;;16.89;100.00
7918;BME280;4004;42.624;23.386;2022-09-03T00:22:24;94127.41;;;16.83;100.00
7918;BME280;4004;42.624;23.386;2022-09-03T00:24:56;94124.63;;;16.93;100.00
7918;BME280;4004;42.624;23.386;2022-09-03T00:27:27;94148.28;;;17.04;100.00
7918;BME280;4004;42.624;23.386;2022-09-03T00:29:59;94150.94;;;17.11;100.00
7918;BME280;4004;42.624;23.386;2022-09-03T00:32:36;94145.53;;;17.07;100.00
7918;BME280;4004;42.624;23.386;2022-09-03T00:35:10;94092.50;;;16.74;100.00
7918;BME280;4004;42.624;23.386;2022-09-03T00:37:42;94108.41;;;16.79;100.00
7918;BME280;4004;42.624;23.386;2022-09-03T00:40:16;94133.94;;;16.96;100.00
7918;BME280;4004;42.624;23.386;2022-09-03T00:42:52;94136.19;;;17.12;100.00
7918;BME280;4004;42.624;23.386;2022-09-03T00:45:31;94139.69;;;17.09;100.00
7918;BME280;4004;42.624;23.386;2022-09-03T00:48:06;94133.88;;;17.10;100.00
7918;BME280;4004;42.624;23.386;2022-09-03T00:50:45;94131.59;;;17.05;100.00
7918;BME280;4004;42.624;23.386;2022-09-03T00:53:27;94136.19;;;17.12;100.00
7918;BME280;4004;42.624;23.386;2022-09-03T00:56:04;94143.59;;;17.08;100.00
7918;BME280;4004;42.624;23.386;2022-09-03T00:58:53;94144.75;;;17.10;100.00
7918;BME280;4004;42.624;23.386;2022-09-03T01:01:28;94145.91;;;17.13;100.00
7918;BME280;4004;42.624;23.386;2022-09-03T01:04:07;94148.59;;;17.16;100.00
7918;BME280;4004;42.624;23.386;2022-09-03T01:06:44;94149.00;;;17.15;100.00
7918;BME280;4004;42.624;23.386;2022-09-03T01:09:27;94144.66;;;17.28;100.00
7918;BME280;4004;42.624;23.386;2022-09-03T01:12:00;94099.00;;;17.02;100.00
7918;BME280;4004;42.624;23.386;2022-09-03T01:14:45;94144.59;;;17.39;100.00
7918;BME280;4004;42.624;23.386;2022-09-03T01:17:21;94090.47;;;16.99;100.00
7918;BME280;4004;42.624;23.386;2022-09-03T01:20:08;94134.56;;;17.25;100.00
7918;BME280;4004;42.624;23.386;2022-09-03T01:26:00;94109.00;;;17.19;100.00
7918;BME280;4004;42.624;23.386;2022-09-03T01:28:52;94124.88;;;17.20;100.00
7918;BME280;4004;42.624;23.386;2022-09-03T01:31:28;94143.06;;;17.31;100.00
7918;BME280;4004;42.624;23.386;2022-09-03T01:34:09;94147.78;;;17.23;100.00
7918;BME280;4004;42.624;23.386;2022-09-03T01:36:45;94158.28;;;17.14;100.00
7918;BME280;4004;42.624;23.386;2022-09-03T01:39:19;94131.69;;;16.84;100.00
7918;BME280;4004;42.624;23.386;2022-09-03T01:41:55;94156.03;;;16.98;100.00
7918;BME280;4004;42.624;23.386;2022-09-03T01:47:45;94158.81;;;16.87;100.00
7918;BME280;4004;42.624;23.386;2022-09-03T01:50:25;94098.06;;;16.45;100.00
7918;BME280;4004;42.624;23.386;2022-09-03T01:53:04;94151.09;;;16.61;100.00
7918;BME280;4004;42.624;23.386;2022-09-03T01:55:46;94149.56;;;16.60;100.00
7918;BME280;4004;42.624;23.386;2022-09-03T01:58:26;94149.97;;;16.51;100.00
7918;BME280;4004;42.624;23.386;2022-09-03T02:01:01;94135.66;;;16.36;100.00
7918;BME280;4004;42.624;23.386;2022-09-03T02:03:34;94125.22;;;16.31;100.00
7918;BME280;4004;42.624;23.386;2022-09-03T02:06:03;94114.38;;;16.27;100.00
7918;BME280;4004;42.624;23.386;2022-09-03T02:08:31;94090.00;;;16.16;100.00
7918;BME280;4004;42.624;23.386;2022-09-03T02:10:58;94116.31;;;16.41;100.00
7918;BME280;4004;42.624;23.386;2022-09-03T02:13:29;94151.88;;;16.72;100.00
7918;BME280;4004;42.624;23.386;2022-09-03T02:16:01;94151.09;;;16.68;100.00
7918;BME280;4004;42.624;23.386;2022-09-03T02:18:36;94156.88;;;16.73;100.00
7918;BME280;4004;42.624;23.386;2022-09-03T02:21:06;94171.25;;;16.81;100.00
7918;BME280;4004;42.624;23.386;2022-09-03T02:23:38;94167.75;;;16.84;100.00
7918;BME280;4004;42.624;23.386;2022-09-03T02:26:05;94167.75;;;16.88;100.00
7918;BME280;4004;42.624;23.386;2022-09-03T02:28:34;94121.69;;;16.52;100.00
7918;BME280;4004;42.624;23.386;2022-09-03T02:31:02;94173.13;;;16.98;100.00
7918;BME280;4004;42.624;23.386;2022-09-03T02:33:34;94175.09;;;16.91;100.00
7918;BME280;4004;42.624;23.386;2022-09-03T02:36:03;94170.03;;;16.96;100.00
7918;BME280;4004;42.624;23.386;2022-09-03T02:38:30;94165.75;;;16.99;100.00
7918;BME280;4004;42.624;23.386;2022-09-03T02:40:57;94175.47;;;16.96;100.00
7918;BME280;4004;42.624;23.386;2022-09-03T02:43:27;94171.22;;;16.88;100.00
7918;BME280;4004;42.624;23.386;2022-09-03T02:45:59;94175.13;;;16.84;100.00
7918;BME280;4004;42.624;23.386;2022-09-03T02:48:28;94175.47;;;16.89;100.00
7918;BME280;4004;42.624;23.386;2022-09-03T02:50:55;94150.69;;;16.69;100.00
7918;BME280;4004;42.624;23.386;2022-09-03T02:53:22;94176.66;;;16.77;100.00
7918;BME280;4004;42.624;23.386;2022-09-03T02:55:49;94162.34;;;16.63;100.00
7918;BME280;4004;42.624;23.386;2022-09-03T02:58:16;94187.13;;;16.86;100.00
7918;BME280;4004;42.624;23.386;2022-09-03T03:00:42;94178.19;;;16.96;100.00
7918;BME280;4004;42.624;23.386;2022-09-03T03:03:09;94168.94;;;16.80;100.00
7918;BME280;4004;42.624;23.386;2022-09-03T03:05:42;94197.19;;;16.96;100.00
7918;BME280;4004;42.624;23.386;2022-09-03T03:08:11;94186.72;;;16.91;100.00
7918;BME280;4004;42.624;23.386;2022-09-03T03:10:39;94173.94;;;16.88;100.00
7918;BME280;4004;42.624;23.386;2022-09-03T03:13:06;94185.16;;;16.94;100.00
7918;BME280;4004;42.624;23.386;2022-09-03T03:15:33;94191.00;;;16.92;100.00
7918;BME280;4004;42.624;23.386;2022-09-03T03:18:00;94134.09;;;16.53;100.00
7918;BME280;4004;42.624;23.386;2022-09-03T03:20:27;94181.69;;;16.86;100.00
7918;BME280;4004;42.624;23.386;2022-09-03T03:22:55;94175.13;;;16.76;100.00
7918;BME280;4004;42.624;23.386;2022-09-03T03:25:22;94186.38;;;16.82;100.00
7918;BME280;4004;42.624;23.386;2022-09-03T03:27:49;94182.88;;;16.85;100.00
7918;BME280;4004;42.624;23.386;2022-09-03T03:30:17;94179.00;;;16.79;100.00
7918;BME280;4004;42.624;23.386;2022-09-03T03:32:45;94182.09;;;16.88;100.00
7918;BME280;4004;42.624;23.386;2022-09-03T03:35:12;94156.13;;;16.69;100.00
7918;BME280;4004;42.624;23.386;2022-09-03T03:37:38;94189.44;;;16.98;100.00
7918;BME280;4004;42.624;23.386;2022-09-03T03:40:08;94186.75;;;16.84;100.00
7918;BME280;4004;42.624;23.386;2022-09-03T03:42:35;94186.34;;;16.96;100.00
7918;BME280;4004;42.624;23.386;2022-09-03T03:45:02;94199.50;;;17.02;100.00
7918;BME280;4004;42.624;23.386;2022-09-03T03:47:29;94188.97;;;17.07;100.00
7918;BME280;4004;42.624;23.386;2022-09-03T03:49:56;94190.56;;;17.01;100.00
7918;BME280;4004;42.624;23.386;2022-09-03T03:52:23;94137.88;;;16.73;100.00
7918;BME280;4004;42.624;23.386;2022-09-03T03:54:50;94184.75;;;16.99;100.00
7918;BME280;4004;42.624;23.386;2022-09-03T03:57:19;94188.63;;;16.98;100.00
7918;BME280;4004;42.624;23.386;2022-09-03T03:59:47;94191.34;;;17.02;100.00
7918;BME280;4004;42.624;23.386;2022-09-03T04:02:15;94193.28;;;16.97;100.00
7918;BME280;4004;42.624;23.386;2022-09-03T04:04:42;94168.91;;;16.87;100.00
7918;BME280;4004;42.624;23.386;2022-09-03T04:07:09;94191.31;;;17.09;100.00
7918;BME280;4004;42.624;23.386;2022-09-03T04:09:35;94195.19;;;17.11;100.00
7918;BME280;4004;42.624;23.386;2022-09-03T04:12:03;94194.44;;;17.04;100.00
7918;BME280;4004;42.624;23.386;2022-09-03T04:14:34;94166.59;;;16.85;100.00
7918;BME280;4004;42.624;23.386;2022-09-03T04:17:01;94194.06;;;17.02;100.00
7918;BME280;4004;42.624;23.386;2022-09-03T04:19:29;94188.25;;;16.99;100.00
7918;BME280;4004;42.624;23.386;2022-09-03T04:21:56;94186.75;;;16.88;100.00
7918;BME280;4004;42.624;23.386;2022-09-03T04:24:23;94196.41;;;16.96;100.00
7918;BME280;4004;42.624;23.386;2022-09-03T04:26:49;94198.34;;;16.99;100.00
7918;BME280;4004;42.624;23.386;2022-09-03T04:29:18;94165.38;;;16.93;100.00
7918;BME280;4004;42.624;23.386;2022-09-03T04:31:47;94164.22;;;16.87;100.00
7918;BME280;4004;42.624;23.386;2022-09-03T04:34:27;94184.38;;;16.97;100.00
7918;BME280;4004;42.624;23.386;2022-09-03T04:36:54;94202.94;;;17.13;100.00
7918;BME280;4004;42.624;23.386;2022-09-03T04:39:22;94168.91;;;16.90;100.00
7918;BME280;4004;42.624;23.386;2022-09-03T04:41:49;94190.97;;;16.99;100.00
7918;BME280;4004;42.624;23.386;2022-09-03T04:44:16;94211.44;;;17.26;100.00
7918;BME280;4004;42.624;23.386;2022-09-03T04:46:42;94188.97;;;17.11;100.00
7918;BME280;4004;42.624;23.386;2022-09-03T04:49:13;94222.63;;;17.35;100.00
7918;BME280;4004;42.624;23.386;2022-09-03T04:51:40;94222.25;;;17.33;100.00
7918;BME280;4004;42.624;23.386;2022-09-03T04:54:07;94226.13;;;17.35;100.00
7918;BME280;4004;42.624;23.386;2022-09-03T04:56:35;94230.03;;;17.34;100.00
7918;BME280;4004;42.624;23.386;2022-09-03T04:59:06;94235.03;;;17.39;100.00
7918;BME280;4004;42.624;23.386;2022-09-03T05:01:34;94244.00;;;17.36;100.00
7918;BME280;4004;42.624;23.386;2022-09-03T05:04:02;94240.09;;;17.37;100.00
7918;BME280;4004;42.624;23.386;2022-09-03T05:06:31;94192.16;;;16.95;100.00
7918;BME280;4004;42.624;23.386;2022-09-03T05:08:58;94244.03;;;17.26;100.00
7918;BME280;4004;42.624;23.386;2022-09-03T05:11:27;94240.94;;;17.20;100.00
7918;BME280;4004;42.624;23.386;2022-09-03T05:13:55;94256.09;;;17.21;100.00
7918;BME280;4004;42.624;23.386;2022-09-03T05:16:23;94252.59;;;17.17;100.00
7918;BME280;4004;42.624;23.386;2022-09-03T05:18:53;94240.16;;;17.23;100.00
7918;BME280;4004;42.624;23.386;2022-09-03T05:21:21;94188.69;;;16.73;100.00
7918;BME280;4004;42.624;23.386;2022-09-03T05:23:49;94236.41;;;16.88;100.00
7918;BME280;4004;42.624;23.386;2022-09-03T05:26:19;94248.72;;;17.14;100.00
7918;BME280;4004;42.624;23.386;2022-09-03T05:28:46;94245.25;;;17.10;100.00
7918;BME280;4004;42.624;23.386;2022-09-03T05:31:15;94243.28;;;17.18;100.00
7918;BME280;4004;42.624;23.386;2022-09-03T05:33:44;94239.41;;;17.15;100.00
7918;BME280;4004;42.624;23.386;2022-09-03T05:36:13;94250.22;;;17.26;100.00
7918;BME280;4004;42.624;23.386;2022-09-03T05:38:40;94251.75;;;17.34;100.00
7918;BME280;4004;42.624;23.386;2022-09-03T05:41:09;94257.16;;;17.42;100.00
7918;BME280;4004;42.624;23.386;2022-09-03T05:43:37;94250.63;;;17.28;100.00
7918;BME280;4004;42.624;23.386;2022-09-03T05:46:05;94257.63;;;17.26;100.00
7918;BME280;4004;42.624;23.386;2022-09-03T05:48:35;94212.25;;;17.12;100.00
7918;BME280;4004;42.624;23.386;2022-09-03T05:51:04;94268.03;;;17.38;100.00
7918;BME280;4004;42.624;23.386;2022-09-03T05:53:33;94277.66;;;17.53;100.00
7918;BME280;4004;42.624;23.386;2022-09-03T05:56:03;94238.97;;;17.28;100.00
7918;BME280;4004;42.624;23.386;2022-09-03T05:58:34;94264.84;;;17.54;100.00
7918;BME280;4004;42.624;23.386;2022-09-03T06:01:09;94271.47;;;17.49;100.00
7918;BME280;4004;42.624;23.386;2022-09-03T06:03:36;94284.63;;;17.58;100.00
7918;BME280;4004;42.624;23.386;2022-09-03T06:06:03;94281.16;;;17.57;100.00
7918;BME280;4004;42.624;23.386;2022-09-03T06:08:31;94280.78;;;17.52;100.00
7918;BME280;4004;42.624;23.386;2022-09-03T06:10:58;94258.69;;;17.43;100.00
7918;BME280;4004;42.624;23.386;2022-09-03T06:13:25;94285.78;;;17.64;100.00
7918;BME280;4004;42.624;23.386;2022-09-03T06:15:57;94289.59;;;17.85;100.00
7918;BME280;4004;42.624;23.386;2022-09-03T06:18:24;94271.09;;;17.54;100.00
7918;BME280;4004;42.624;23.386;2022-09-03T06:20:55;94286.06;;;17.80;100.00
7918;BME280;4004;42.624;23.386;2022-09-03T06:23:22;94289.22;;;17.75;100.00
7918;BME280;4004;42.624;23.386;2022-09-03T06:25:59;94287.63;;;17.85;100.00
7918;BME280;4004;42.624;23.386;2022-09-03T06:28:26;94265.84;;;17.92;100.00
7918;BME280;4004;42.624;23.386;2022-09-03T06:30:52;94291.22;;;18.31;100.00
7918;BME280;4004;42.624;23.386;2022-09-03T06:33:21;94266.34;;;18.32;100.00
7918;BME280;4004;42.624;23.386;2022-09-03T06:35:52;94302.59;;;18.67;100.00
7918;BME280;4004;42.624;23.386;2022-09-03T06:38:22;94296.91;;;18.51;100.00
7918;BME280;4004;42.624;23.386;2022-09-03T06:43:39;94301.91;;;18.59;100.00
7918;BME280;4004;42.624;23.386;2022-09-03T06:46:08;94301.75;;;18.81;100.00
7918;BME280;4004;42.624;23.386;2022-09-03T06:48:37;94294.91;;;19.03;99.95
7918;BME280;4004;42.624;23.386;2022-09-03T06:51:06;94271.66;;;18.92;98.13
7918;BME280;4004;42.624;23.386;2022-09-03T06:53:35;94297.25;;;19.39;97.04
7918;BME280;4004;42.624;23.386;2022-09-03T06:56:04;94301.50;;;19.75;94.79
7918;BME280;4004;42.624;23.386;2022-09-03T06:58:33;94310.03;;;20.07;91.81
7918;BME280;4004;42.624;23.386;2022-09-03T07:01:02;94308.03;;;20.39;89.74
7918;BME280;4004;42.624;23.386;2022-09-03T07:03:31;94306.47;;;20.38;88.34
7918;BME280;4004;42.624;23.386;2022-09-03T07:06:03;94309.59;;;20.36;88.34
7918;BME280;4004;42.624;23.386;2022-09-03T07:08:31;94319.84;;;20.32;88.66
7918;BME280;4004;42.624;23.386;2022-09-03T07:10:58;94316.47;;;20.48;88.49
7918;BME280;4004;42.624;23.386;2022-09-03T07:13:25;94312.78;;;20.85;86.98
7918;BME280;4004;42.624;23.386;2022-09-03T07:16:00;94317.56;;;21.01;85.59
7918;BME280;4004;42.624;23.386;2022-09-03T07:18:27;94321.31;;;21.31;84.51
7918;BME280;4004;42.624;23.386;2022-09-03T07:20:57;94324.28;;;22.00;80.81
7918;BME280;4004;42.624;23.386;2022-09-03T07:23:27;94326.88;;;22.76;76.61
7918;BME280;4004;42.624;23.386;2022-09-03T07:25:55;94329.13;;;23.73;69.85
7918;BME280;4004;42.624;23.386;2022-09-03T07:28:22;94330.00;;;24.37;63.46
7918;BME280;4004;42.624;23.386;2022-09-03T07:30:50;94338.50;;;24.81;58.71
7918;BME280;4004;42.624;23.386;2022-09-03T07:33:17;94341.06;;;25.11;55.64
7918;BME280;4004;42.624;23.386;2022-09-03T07:35:43;94336.00;;;25.09;54.61
7918;BME280;4004;42.624;23.386;2022-09-03T07:38:11;94343.06;;;25.10;55.15
7918;BME280;4004;42.624;23.386;2022-09-03T07:40:39;94343.03;;;25.23;55.10
7918;BME280;4004;42.624;23.386;2022-09-03T07:43:06;94345.25;;;25.15;54.85
7918;BME280;4004;42.624;23.386;2022-09-03T07:45:33;94347.50;;;24.95;55.22
7918;BME280;4004;42.624;23.386;2022-09-03T07:47:59;94347.16;;;24.80;56.58
7918;BME280;4004;42.624;23.386;2022-09-03T07:50:26;94343.31;;;24.26;56.79
7918;BME280;4004;42.624;23.386;2022-09-03T07:52:55;94341.72;;;23.99;57.30
7918;BME280;4004;42.624;23.386;2022-09-03T07:55:22;94344.47;;;23.99;58.36
7918;BME280;4004;42.624;23.386;2022-09-03T07:57:54;94343.56;;;24.57;58.05
7918;BME280;4004;42.624;23.386;2022-09-03T08:00:21;94354.41;;;24.99;55.34
7918;BME280;4004;42.624;23.386;2022-09-03T08:02:48;94323.28;;;24.90;54.68
7918;BME280;4004;42.624;23.386;2022-09-03T08:05:16;94345.09;;;24.71;56.43
7918;BME280;4004;42.624;23.386;2022-09-03T08:07:44;94340.25;;;24.63;55.55
7918;BME280;4004;42.624;23.386;2022-09-03T08:10:11;94344.66;;;24.60;54.90
7918;BME280;4004;42.624;23.386;2022-09-03T08:12:39;94350.09;;;24.34;55.89
7918;BME280;4004;42.624;23.386;2022-09-03T08:15:08;94347.38;;;24.22;57.17
7918;BME280;4004;42.624;23.386;2022-09-03T08:17:35;94355.84;;;23.85;58.23
7918;BME280;4004;42.624;23.386;2022-09-03T08:20:03;94352.97;;;23.76;58.98
7918;BME280;4004;42.624;23.386;2022-09-03T08:22:30;94353.78;;;23.89;58.23
7918;BME280;4004;42.624;23.386;2022-09-03T08:24:56;94355.22;;;23.94;59.57
7918;BME280;4004;42.624;23.386;2022-09-03T08:27:24;94347.66;;;23.69;58.88
7918;BME280;4004;42.624;23.386;2022-09-03T08:29:52;94353.47;;;23.71;59.59
7918;BME280;4004;42.624;23.386;2022-09-03T08:32:20;94340.69;;;23.81;59.18
7918;BME280;4004;42.624;23.386;2022-09-03T08:34:47;94349.00;;;24.06;58.62
7918;BME280;4004;42.624;23.386;2022-09-03T08:37:15;94345.16;;;24.04;57.87
7918;BME280;4004;42.624;23.386;2022-09-03T08:39:42;94357.06;;;23.68;59.27
7918;BME280;4004;42.624;23.386;2022-09-03T08:42:29;94344.81;;;23.72;59.91
7918;BME280;4004;42.624;23.386;2022-09-03T08:44:59;94348.41;;;23.40;59.73
7918;BME280;4004;42.624;23.386;2022-09-03T08:47:32;94340.16;;;23.11;61.74
7918;BME280;4004;42.624;23.386;2022-09-03T08:50:07;94343.59;;;22.82;63.83
7918;BME280;4004;42.624;23.386;2022-09-03T08:52:40;94344.94;;;22.58;66.97
7918;BME280;4004;42.624;23.386;2022-09-03T08:55:17;94342.13;;;22.94;65.42
7918;BME280;4004;42.624;23.386;2022-09-03T08:57:48;94341.34;;;23.26;62.61
7918;BME280;4004;42.624;23.386;2022-09-03T09:00:16;94343.97;;;23.46;61.83
7918;BME280;4004;42.624;23.386;2022-09-03T09:03:06;94341.78;;;23.54;61.80
7918;BME280;4004;42.624;23.386;2022-09-03T09:05:43;94349.63;;;23.68;60.82
7918;BME280;4004;42.624;23.386;2022-09-03T09:08:19;94349.03;;;23.61;60.75
7918;BME280;4004;42.624;23.386;2022-09-03T09:10:57;94348.47;;;23.53;60.46
7918;BME280;4004;42.624;23.386;2022-09-03T09:13:32;94347.84;;;23.62;60.50
7918;BME280;4004;42.624;23.386;2022-09-03T09:16:09;94351.31;;;23.49;60.44
7918;BME280;4004;42.624;23.386;2022-09-03T09:19:06;94362.91;;;23.41;61.52
7918;BME280;4004;42.624;23.386;2022-09-03T09:21:40;94359.78;;;23.26;63.01
7918;BME280;4004;42.624;23.386;2022-09-03T09:24:16;94357.38;;;23.28;62.41
7918;BME280;4004;42.624;23.386;2022-09-03T09:26:46;94358.72;;;23.36;61.57
7918;BME280;4004;42.624;23.386;2022-09-03T09:29:14;94362.81;;;23.44;61.60
7918;BME280;4004;42.624;23.386;2022-09-03T09:31:41;94355.41;;;23.57;60.70
7918;BME280;4004;42.624;23.386;2022-09-03T09:34:11;94360.75;;;23.48;60.99
7918;BME280;4004;42.624;23.386;2022-09-03T09:36:42;94357.75;;;23.43;61.59
7918;BME280;4004;42.624;23.386;2022-09-03T09:39:11;94349.34;;;23.50;61.39
7918;BME280;4004;42.624;23.386;2022-09-03T09:41:40;94356.09;;;23.62;60.88
7918;BME280;4004;42.624;23.386;2022-09-03T09:44:07;94349.03;;;23.61;61.43
7918;BME280;4004;42.624;23.386;2022-09-03T09:46:35;94363.25;;;23.72;60.56
7918;BME280;4004;42.624;23.386;2022-09-03T09:49:28;94360.81;;;23.90;59.75
7918;BME280;4004;42.624;23.386;2022-09-03T09:52:01;94365.13;;;24.04;59.23
7918;BME280;4004;42.624;23.386;2022-09-03T09:54:29;94366.03;;;24.14;58.69
7918;BME280;4004;42.624;23.386;2022-09-03T09:57:00;94361.97;;;24.06;58.67
7918;BME280;4004;42.624;23.386;2022-09-03T09:59:28;94372.22;;;23.89;59.60
7918;BME280;4004;42.624;23.386;2022-09-03T10:02:07;94375.03;;;24.02;59.28
7918;BME280;4004;42.624;23.386;2022-09-03T10:04:36;94367.44;;;24.18;58.11
7918;BME280;4004;42.624;23.386;2022-09-03T10:07:20;94374.69;;;23.99;58.37
7918;BME280;4004;42.624;23.386;2022-09-03T10:10:00;94369.19;;;23.99;58.60
7918;BME280;4004;42.624;23.386;2022-09-03T10:12:32;94362.59;;;24.10;58.97
7918;BME280;4004;42.624;23.386;2022-09-03T10:15:09;94373.91;;;23.99;59.22
7918;BME280;4004;42.624;23.386;2022-09-03T10:17:45;94370.38;;;23.98;59.50
7918;BME280;4004;42.624;23.386;2022-09-03T10:20:14;94366.94;;;23.82;60.54
7918;BME280;4004;42.624;23.386;2022-09-03T10:22:59;94358.84;;;23.62;61.88
7918;BME280;4004;42.624;23.386;2022-09-03T10:25:32;94353.38;;;23.45;62.53
7918;BME280;4004;42.624;23.386;2022-09-03T10:28:05;94352.22;;;23.30;63.59
7918;BME280;4004;42.624;23.386;2022-09-03T10:30:43;94342.66;;;23.05;64.73
7918;BME280;4004;42.624;23.386;2022-09-03T10:33:18;94346.75;;;22.97;65.94
7918;BME280;4004;42.624;23.386;2022-09-03T10:35:52;94349.84;;;22.99;66.20
7918;BME280;4004;42.624;23.386;2022-09-03T10:38:28;94351.91;;;22.95;66.56
7918;BME280;4004;42.624;23.386;2022-09-03T10:41:06;94350.69;;;22.96;67.91
7918;BME280;4004;42.624;23.386;2022-09-03T10:44:09;94356.44;;;23.18;66.40
7918;BME280;4004;42.624;23.386;2022-09-03T10:46:50;94351.38;;;23.16;65.91
7918;BME280;4004;42.624;23.386;2022-09-03T10:49:35;94349.75;;;23.19;67.22
7918;BME280;4004;42.624;23.386;2022-09-03T10:52:09;94344.50;;;23.25;66.21
7918;BME280;4004;42.624;23.386;2022-09-03T10:54:59;94353.81;;;23.44;66.03
7918;BME280;4004;42.624;23.386;2022-09-03T10:57:38;94347.25;;;23.54;64.79
7918;BME280;4004;42.624;23.386;2022-09-03T11:00:09;94344.00;;;23.59;64.71
7918;BME280;4004;42.624;23.386;2022-09-03T11:03:17;94347.28;;;23.83;63.46
7918;BME280;4004;42.624;23.386;2022-09-03T11:05:55;94342.13;;;23.85;63.37
7918;BME280;4004;42.624;23.386;2022-09-03T11:08:29;94337.97;;;23.93;61.31
7918;BME280;4004;42.624;23.386;2022-09-03T11:11:08;94341.47;;;23.94;61.08
7918;BME280;4004;42.624;23.386;2022-09-03T11:13:40;94346.28;;;23.77;61.82
7918;BME280;4004;42.624;23.386;2022-09-03T11:16:14;94350.22;;;23.76;61.56
7918;BME280;4004;42.624;23.386;2022-09-03T11:18:48;94345.78;;;23.66;62.25
7918;BME280;4004;42.624;23.386;2022-09-03T11:21:19;94355.47;;;23.70;63.91
7918;BME280;4004;42.624;23.386;2022-09-03T11:23:48;94350.31;;;23.72;62.66
7918;BME280;4004;42.624;23.386;2022-09-03T11:26:20;94347.88;;;23.74;61.13
7918;BME280;4004;42.624;23.386;2022-09-03T11:28:56;94349.53;;;23.72;61.07
7918;BME280;4004;42.624;23.386;2022-09-03T11:31:32;94342.41;;;23.45;62.47
7918;BME280;4004;42.624;23.386;2022-09-03T11:34:05;94348.53;;;23.20;64.35
7918;BME280;4004;42.624;23.386;2022-09-03T11:36:34;94344.00;;;23.13;65.24
7918;BME280;4004;42.624;23.386;2022-09-03T11:39:12;94335.09;;;23.09;64.20
7918;BME280;4004;42.624;23.386;2022-09-03T11:41:42;94327.75;;;23.06;65.26
7918;BME280;4004;42.624;23.386;2022-09-03T11:44:18;94341.53;;;23.03;63.57
7918;BME280;4004;42.624;23.386;2022-09-03T11:46:52;94341.72;;;22.79;63.96
7918;BME280;4004;42.624;23.386;2022-09-03T11:49:27;94331.00;;;22.68;64.67
7918;BME280;4004;42.624;23.386;2022-09-03T11:51:57;94344.88;;;22.77;65.09
7918;BME280;4004;42.624;23.386;2022-09-03T11:54:25;94339.38;;;22.77;64.03
7918;BME280;4004;42.624;23.386;2022-09-03T11:59:34;94336.97;;;22.63;65.25
7918;BME280;4004;42.624;23.386;2022-09-03T12:02:05;94328.84;;;22.60;65.37
7918;BME280;4004;42.624;23.386;2022-09-03T12:04:43;94334.56;;;22.65;65.32
7918;BME280;4004;42.624;23.386;2022-09-03T12:07:28;94329.44;;;22.67;63.97
7918;BME280;4004;42.624;23.386;2022-09-03T12:10:34;94328.16;;;22.55;64.55
7918;BME280;4004;42.624;23.386;2022-09-03T12:13:15;94324.13;;;22.60;65.95
7918;BME280;4004;42.624;23.386;2022-09-03T12:16:04;94324.50;;;22.62;64.19
7918;BME280;4004;42.624;23.386;2022-09-03T12:18:34;94316.44;;;22.71;64.13
7918;BME280;4004;42.624;23.386;2022-09-03T12:21:04;94297.84;;;22.63;64.04
7918;BME280;4004;42.624;23.386;2022-09-03T12:23:34;94314.97;;;22.83;64.78
7918;BME280;4004;42.624;23.386;2022-09-03T12:26:04;94316.00;;;22.89;64.80
7918;BME280;4004;42.624;23.386;2022-09-03T12:28:36;94314.81;;;22.90;63.96
7918;BME280;4004;42.624;23.386;2022-09-03T12:31:09;94314.63;;;22.97;62.93
7918;BME280;4004;42.624;23.386;2022-09-03T12:33:44;94308.53;;;22.90;62.70
7918;BME280;4004;42.624;23.386;2022-09-03T12:36:13;94310.34;;;22.80;63.61
7918;BME280;4004;42.624;23.386;2022-09-03T12:38:40;94315.50;;;22.94;63.90
7918;BME280;4004;42.624;23.386;2022-09-03T12:41:19;94317.97;;;22.89;62.58
7918;BME280;4004;42.624;23.386;2022-09-03T12:43:51;94310.78;;;22.95;62.28
7918;BME280;4004;42.624;23.386;2022-09-03T12:46:22;94322.69;;;22.88;62.78
7918;BME280;4004;42.624;23.386;2022-09-03T12:48:53;94315.50;;;22.94;61.38
7918;BME280;4004;42.624;23.386;2022-09-03T12:51:21;94310.97;;;23.04;61.13
7918;BME280;4004;42.624;23.386;2022-09-03T12:53:50;94307.69;;;23.09;61.62
7918;BME280;4004;42.624;23.386;2022-09-03T12:56:19;94303.38;;;23.25;61.99
7918;BME280;4004;42.624;23.386;2022-09-03T12:58:51;94298.03;;;23.34;62.11
7918;BME280;4004;42.624;23.386;2022-09-03T13:01:22;94303.75;;;23.40;61.12
7918;BME280;4004;42.624;23.386;2022-09-03T13:03:52;94297.06;;;23.41;60.18
7918;BME280;4004;42.624;23.386;2022-09-03T13:06:24;94299.72;;;23.44;60.22
7918;BME280;4004;42.624;23.386;2022-09-03T13:08:55;94299.63;;;23.48;60.14
7918;BME280;4004;42.624;23.386;2022-09-03T13:11:25;94298.94;;;23.44;60.14
7918;BME280;4004;42.624;23.386;2022-09-03T13:13:59;94292.44;;;23.37;59.79
7918;BME280;4004;42.624;23.386;2022-09-03T13:17:05;94285.19;;;23.31;59.48
7918;BME280;4004;42.624;23.386;2022-09-03T13:19:47;94283.59;;;23.17;61.08
7918;BME280;4004;42.624;23.386;2022-09-03T13:22:22;94279.06;;;23.10;60.77
7918;BME280;4004;42.624;23.386;2022-09-03T13:25:02;94275.38;;;23.01;62.06
7918;BME280;4004;42.624;23.386;2022-09-03T13:27:40;94278.31;;;22.77;63.33
7918;BME280;4004;42.624;23.386;2022-09-03T13:30:12;94269.16;;;22.84;63.63
7918;BME280;4004;42.624;23.386;2022-09-03T13:32:49;94268.72;;;22.85;63.36
7918;BME280;4004;42.624;23.386;2022-09-03T13:35:26;94275.56;;;22.93;61.41
7918;BME280;4004;42.624;23.386;2022-09-03T13:37:55;94269.16;;;23.00;61.62
7918;BME280;4004;42.624;23.386;2022-09-03T13:40:31;94273.00;;;23.03;62.11
7918;BME280;4004;42.624;23.386;2022-09-03T13:43:03;94267.31;;;23.10;62.24